Airfield :
LOGIN :

Register | Disclaimer

   EN    FR    IT 

 










Legend :    VFR   Marginal VFR   IFR   Intensive IFR   Very Intensive IFR
Visi :
Ceiling :
>= 8 km
>= 3000ft
5 to 8 km
1000 to 3000 ft
1500m to 5 km
500 to 1000 ft
800 to 1500m
200 to 500 ft
< 800m
< 200 ft
Symbols :   Thunderstorms  Fog  Heavy snow  Heavy precipitations  Wind > 20 kt
SIGMETs :     Misc.  Thunderstorms  Icing  Turbulence  Mountain Waves  Volcanic Ashes






- Airport Elevation : 1411 ft
- IATA code : SZG


LOWS - Salzburg

CURRENT METAR :
  • 241120Z VRB03KT 9999 FEW024 08/03 Q1006 NOSIG

EXPIRED METARs :
  • 241050Z VRB02KT 9999 FEW020 08/02 Q1006 NOSIG
  • 241020Z 16004KT 090V250 9999 FEW020 07/02 Q1005 NOSIG
  • 240950Z 15006KT 110V170 9999 FEW040 07/02 Q1005 NOSIG
  • 240920Z 15008KT CAVOK 06/01 Q1005 NOSIG
  • 240850Z 14008KT CAVOK 05/01 Q1004 NOSIG
  • 240820Z 15010KT CAVOK 04/01 Q1004 NOSIG
  • 240750Z 15007KT 9999 FEW060 04/01 Q1004 NOSIG
  • 240720Z 15008KT 9999 FEW060 03/00 Q1003 NOSIG
  • 240650Z 14007KT CAVOK 02/00 Q1003 NOSIG

TAF TAF LOWS
Valid from the 24 at 12:00 until the 25 at 12:00 UTC


241115Z 2412/2512 35006KT CAVOK TX09/2415Z TN00/2506Z
BECMG 2416/2418 15006KT
PROB30
TEMPO 2422/2508 VRB02KT 1200 BCFG SCT003
BECMG 2509/2511 36006KT



MET'MAP, your aeronautical weather chart ! - Copyright ORBIFLY December 2007 - Disclaimer

ORBIFLY MET'MAP TEAM :

Programming & Development : Alexandra Zaïnal
Original concept : Baudouin d'Aumeries
Technical & hardware support : Manuel Goepfert
Assistance : Marc-Olivier Méhu




SOURCES & CREDITS :

   NOAA